parsiteb.com alexa rank chart, parsiteb.com alexa rank daily changes

parsiteb.com alexa rank chart, parsiteb.com alexa rank daily changes

parsiteb.com
Actual rank:
40 629

RANK HISTORY

Date Rank Diff
2018/04/22 40 629 +3 471
2018/04/21 37 158 +3 230
2018/04/20 33 928 -12 117
2018/04/19 46 045 +5 314
2018/04/18 40 731 +12 014
2018/04/17 28 717 +928
2018/04/16 27 789 -10 592
2018/04/15 38 381 +8 702
2018/04/14 29 679 -7 008
2018/04/13 36 687 -3 570
2018/04/12 40 257 +6 850
2018/04/11 33 407 -10 515
2018/04/10 43 922 +16 366
2018/04/09 27 556 -15 196
2018/04/08 42 752 +12 001
2018/04/07 30 751 -887
2018/04/06 31 638 +1 712
2018/04/05 29 926 -14 451
2018/04/04 44 377 +13 016
2018/04/03 31 361 +430
2018/04/02 30 931 -6 604
2018/04/01 37 535 -5 055
2018/03/31 42 590 +13 036
2018/03/30 29 554 -7 151
2018/03/29 36 705 -1 850
2018/03/28 38 555 +6 018
2018/03/27 32 537 -2 044
2018/03/26 34 581 +1 541
2018/03/25 33 040 -12 511
2018/03/24 45 551 -13 057
2018/03/23 58 608 +11 749
2018/03/22 46 859 +9 837
2018/03/21 37 022 -18 581
2018/03/20 55 603 +17 626
2018/03/19 37 977 +430
2018/03/18 37 547 -12 216
2018/03/17 49 763 +3 710
2018/03/16 46 053 +11 660
2018/03/15 34 393 -3 500
2018/03/14 37 893 +8 211
2018/03/13 29 682 -11 385
2018/03/12 41 067 -34 552
2018/03/11 75 619 +29 374
2018/03/10 46 245 -2 512
2018/03/09 48 757 -6 661
2018/03/08 55 418 +8 786
2018/03/07 46 632 -5 516
2018/03/06 52 148 +10 365
2018/03/05 41 783 -7 557
2018/03/04 49 340 -12 105
2018/03/03 61 445 +13 027
2018/03/02 48 418 -3 120
2018/03/01 51 538 +1 047
2018/02/28 50 491 +42
2018/02/27 50 449 +8 215
2018/02/26 42 234 -10 903
2018/02/25 53 137 -20 566
2018/02/24 73 703 +8 303
2018/02/23 65 400 -10 605
2018/02/22 76 005 +10 909
2018/02/21 65 096

WIDGET FOR YOUR SITE

DOMAINS WITH THE NEAREST RANK

Domain Rank
tynker.com 40 624
paribu.com 40 625
flatex.de 40 626
yandy.com 40 627
pai.pt 40 628
parsiteb.com 40 629
fabo.com 40 630
chinadegrees.cn 40 631
instant-ltc.eu 40 632
metro.taipei 40 633
mspoweruser.com 40 634

DOMAINS WITH THE NEAREST RANK BY TLD .com

Domain Rank
lifelock.com 40 619
gfi.com 40 622
tynker.com 40 624
paribu.com 40 625
yandy.com 40 627
parsiteb.com 40 629
fabo.com 40 630
mspoweruser.com 40 634
mzcpunjab.com 40 635
humankinetics.com 40 636
elevenwarriors.com 40 642